Time;durP1;ratioP1;P1;durP2;ratioP2;P2;SDS_P1;SDS_P2;PMS_P1;PMS_P2;Temp;Humidity;BMP_temperature;BMP_pressure;BME280_temperature;BME280_humidity;BME280_pressure;Samples;Min_cycle;Max_cycle;Signal;HPM_P1;HPM_P2
2021/05/21 00:00:43;;;;;;;6.30;3.80;;;12.10;97.30;;;;;;4940865;29;20229;-88
2021/05/21 00:03:18;;;;;;;4.40;3.57;;;12.10;97.30;;;;;;4939754;29;20202;-88
2021/05/21 00:05:43;;;;;;;4.23;3.37;;;12.10;97.30;;;;;;4939503;29;20291;-88
2021/05/21 00:08:10;;;;;;;5.43;3.43;;;12.10;97.30;;;;;;4939602;29;20458;-88
2021/05/21 00:10:36;;;;;;;5.23;3.63;;;12.10;97.30;;;;;;4938650;29;20238;-89
2021/05/21 00:13:01;;;;;;;5.20;4.10;;;12.10;97.30;;;;;;4939083;29;20517;-89
2021/05/21 00:15:27;;;;;;;5.33;4.00;;;12.10;97.30;;;;;;4939164;29;20470;-89
2021/05/21 00:17:52;;;;;;;4.77;3.70;;;12.10;97.30;;;;;;4939868;29;20638;-89
2021/05/21 00:20:18;;;;;;;5.20;3.53;;;12.10;97.30;;;;;;4939968;29;20669;-88
2021/05/21 00:22:43;;;;;;;4.63;3.50;;;12.00;97.30;;;;;;4939937;29;20183;-88
2021/05/21 00:25:09;;;;;;;6.30;4.20;;;12.00;97.30;;;;;;4939649;29;20694;-88
2021/05/21 00:27:35;;;;;;;8.80;3.87;;;12.00;97.30;;;;;;4941028;29;20175;-89
2021/05/21 00:30:01;;;;;;;4.63;3.67;;;12.00;97.30;;;;;;4940635;29;20437;-89
2021/05/21 00:32:26;;;;;;;4.13;3.53;;;11.90;97.30;;;;;;4941124;29;20175;-89
2021/05/21 00:34:52;;;;;;;5.30;3.40;;;11.90;97.30;;;;;;4940902;29;20206;-88
2021/05/21 00:37:17;;;;;;;11.23;4.00;;;11.90;97.30;;;;;;4940772;29;20213;-88
2021/05/21 00:39:43;;;;;;;8.10;3.60;;;11.80;97.30;;;;;;4958002;29;20176;-89
2021/05/21 00:42:08;;;;;;;4.53;3.27;;;11.80;97.30;;;;;;4940761;29;20182;-89
2021/05/21 00:44:34;;;;;;;4.50;3.67;;;11.80;97.30;;;;;;4940795;29;20206;-89
2021/05/21 00:47:00;;;;;;;5.30;4.13;;;11.80;97.30;;;;;;4939665;29;20207;-89
2021/05/21 00:49:25;;;;;;;5.03;3.80;;;11.80;97.30;;;;;;4953907;29;20184;-89
2021/05/21 00:51:51;;;;;;;5.43;3.90;;;11.70;97.30;;;;;;4938559;29;20299;-89
2021/05/21 00:54:20;;;;;;;5.77;4.03;;;11.70;97.30;;;;;;4939718;29;20203;-89
2021/05/21 00:56:46;;;;;;;7.27;4.00;;;11.70;97.30;;;;;;4940092;29;20183;-89
2021/05/21 00:59:13;;;;;;;5.00;3.50;;;11.70;97.30;;;;;;4939512;29;20426;-89
2021/05/21 01:01:38;;;;;;;7.60;4.57;;;11.70;97.30;;;;;;4940262;29;20446;-89
2021/05/21 01:04:07;;;;;;;5.20;3.80;;;11.60;97.30;;;;;;4940291;29;20419;-89
2021/05/21 01:06:32;;;;;;;8.03;3.60;;;11.60;97.30;;;;;;4940334;29;20213;-89
2021/05/21 01:08:58;;;;;;;4.80;3.53;;;11.60;97.30;;;;;;4938299;29;20423;-89
2021/05/21 01:11:25;;;;;;;7.80;3.90;;;11.60;97.30;;;;;;4940195;29;20176;-89
2021/05/21 01:13:51;;;;;;;6.40;4.30;;;11.60;97.30;;;;;;4940132;29;20423;-89
2021/05/21 01:16:17;;;;;;;6.03;3.93;;;11.60;97.30;;;;;;4957031;29;20433;-89
2021/05/21 01:18:42;;;;;;;5.03;4.03;;;11.50;97.30;;;;;;4940279;29;20243;-89
2021/05/21 01:21:08;;;;;;;11.50;3.87;;;11.50;97.30;;;;;;4939989;29;20427;-89
2021/05/21 01:23:34;;;;;;;8.17;5.23;;;11.50;97.30;;;;;;4939912;29;20183;-89
2021/05/21 01:25:59;;;;;;;5.50;4.13;;;11.50;97.30;;;;;;4939801;29;20217;-89
2021/05/21 01:28:25;;;;;;;7.23;4.53;;;11.50;97.30;;;;;;4939856;29;20206;-89
2021/05/21 01:30:51;;;;;;;5.13;4.00;;;11.50;97.30;;;;;;4938139;29;20267;-89
2021/05/21 01:33:17;;;;;;;8.03;4.47;;;11.50;97.30;;;;;;4937816;29;20175;-89
2021/05/21 01:35:44;;;;;;;5.00;3.90;;;11.40;97.30;;;;;;4937513;29;20454;-89
2021/05/21 01:38:12;;;;;;;5.80;4.57;;;11.50;97.30;;;;;;4938261;29;20418;-89
2021/05/21 01:40:38;;;;;;;8.07;4.57;;;11.40;97.30;;;;;;4939221;29;20426;-89
2021/05/21 01:43:04;;;;;;;5.57;4.50;;;11.40;97.30;;;;;;4938703;29;20522;-89
2021/05/21 01:45:30;;;;;;;8.90;4.53;;;11.40;97.30;;;;;;4938805;29;20498;-89
2021/05/21 01:47:57;;;;;;;7.20;4.30;;;11.40;97.30;;;;;;4939356;29;20964;-89
2021/05/21 01:50:23;;;;;;;4.93;3.90;;;11.40;97.30;;;;;;4939328;29;20415;-89
2021/05/21 01:52:49;;;;;;;4.70;3.53;;;11.40;97.30;;;;;;4939810;29;20493;-89
2021/05/21 01:55:14;;;;;;;5.93;4.30;;;11.40;97.30;;;;;;4939761;29;20505;-89
2021/05/21 01:57:40;;;;;;;4.73;4.07;;;11.40;97.30;;;;;;4939688;29;20190;-89
2021/05/21 02:00:08;;;;;;;10.50;4.23;;;11.40;97.30;;;;;;4939788;29;20194;-89
2021/05/21 02:02:35;;;;;;;5.37;4.50;;;11.40;97.30;;;;;;4940078;29;20427;-89
2021/05/21 02:05:00;;;;;;;4.50;3.70;;;11.40;97.30;;;;;;4939291;29;20506;-89
2021/05/21 02:07:26;;;;;;;5.87;4.10;;;11.40;97.30;;;;;;4922031;29;20423;-89
2021/05/21 02:09:51;;;;;;;6.33;4.40;;;11.40;97.30;;;;;;4921962;29;20203;-89
2021/05/21 02:12:17;;;;;;;6.53;4.30;;;11.40;97.30;;;;;;4952094;29;20184;-89
2021/05/21 02:14:42;;;;;;;9.67;4.90;;;11.40;97.30;;;;;;4955956;29;20203;-89
2021/05/21 02:17:07;;;;;;;6.40;4.10;;;11.40;97.30;;;;;;4939233;29;20194;-89
2021/05/21 02:19:33;;;;;;;6.03;3.90;;;11.40;97.30;;;;;;4938659;29;20261;-89
2021/05/21 02:21:59;;;;;;;23.53;4.67;;;11.30;97.30;;;;;;4938528;29;20187;-89
2021/05/21 02:24:27;;;;;;;9.50;3.70;;;11.40;97.30;;;;;;4937525;29;20708;-90
2021/05/21 02:26:52;;;;;;;7.30;4.10;;;11.30;97.30;;;;;;4936756;29;20981;-89
2021/05/21 02:29:18;;;;;;;7.27;3.93;;;11.30;97.30;;;;;;4953638;29;20478;-90
2021/05/21 02:31:43;;;;;;;8.47;4.07;;;11.30;97.30;;;;;;4936561;29;20211;-90
2021/05/21 02:34:09;;;;;;;8.07;4.80;;;11.30;97.30;;;;;;4937357;29;20519;-89
2021/05/21 02:36:34;;;;;;;5.53;4.00;;;11.30;97.30;;;;;;4937634;29;20179;-90
2021/05/21 02:39:01;;;;;;;6.60;4.10;;;11.20;97.30;;;;;;4939080;29;20226;-90
2021/05/21 02:41:26;;;;;;;7.67;4.50;;;11.20;97.30;;;;;;4939130;29;20182;-89
2021/05/21 02:43:52;;;;;;;5.03;4.57;;;11.20;97.30;;;;;;4938895;29;20514;-90
2021/05/21 02:46:17;;;;;;;6.60;4.10;;;11.20;97.30;;;;;;4937010;29;20654;-90
2021/05/21 02:49:04;;;;;;;4.63;4.03;;;11.20;97.30;;;;;;4939539;29;20211;-89
2021/05/21 03:00:12;;;;;;;6.40;3.80;;;11.20;97.30;;;;;;5100290;23;20506;-90
2021/05/21 03:14:32;;;;;;;6.23;4.03;;;11.20;97.30;;;;;;4977018;23;20496;-89
2021/05/21 03:16:59;;;;;;;4.37;3.73;;;11.20;97.30;;;;;;4955114;28;20432;-90
2021/05/21 03:19:24;;;;;;;7.07;3.80;;;11.20;97.30;;;;;;4955883;28;20261;-89
2021/05/21 03:21:50;;;;;;;6.90;4.57;;;11.20;97.30;;;;;;4956120;28;20450;-90
2021/05/21 03:24:15;;;;;;;6.60;4.73;;;11.20;97.30;;;;;;4957553;28;20202;-89
2021/05/21 03:29:15;;;;;;;5.33;4.33;;;11.30;97.30;;;;;;4992349;23;20516;-88
2021/05/21 03:31:44;;;;;;;5.20;3.80;;;11.30;97.30;;;;;;4955812;28;20725;-88
2021/05/21 03:34:11;;;;;;;5.20;4.17;;;11.30;97.30;;;;;;4956108;28;20848;-87
2021/05/21 03:36:37;;;;;;;6.23;4.40;;;11.30;97.30;;;;;;4957482;28;20891;-88
2021/05/21 03:39:05;;;;;;;5.60;3.70;;;11.30;97.30;;;;;;4957381;28;20529;-88
2021/05/21 03:41:32;;;;;;;6.23;3.80;;;11.30;97.30;;;;;;4956842;28;20418;-88
2021/05/21 03:43:57;;;;;;;4.97;3.73;;;11.30;97.30;;;;;;4957400;28;20981;-88
2021/05/21 03:46:23;;;;;;;5.10;3.80;;;11.30;97.30;;;;;;4956746;28;20472;-88
2021/05/21 03:48:48;;;;;;;5.77;3.97;;;11.40;97.30;;;;;;4955638;28;20536;-88
2021/05/21 03:51:14;;;;;;;5.37;4.07;;;11.40;97.30;;;;;;4972126;28;20504;-87
2021/05/21 03:53:39;;;;;;;5.13;4.00;;;11.40;97.30;;;;;;4955147;28;20170;-88
2021/05/21 03:56:05;;;;;;;5.47;3.83;;;11.40;97.30;;;;;;4955088;28;20182;-88
2021/05/21 03:58:33;;;;;;;6.50;3.77;;;11.40;97.30;;;;;;4955127;28;20246;-88
2021/05/21 04:00:59;;;;;;;6.37;4.07;;;11.40;97.30;;;;;;4954969;28;20185;-88
2021/05/21 04:03:24;;;;;;;6.00;3.70;;;11.50;97.30;;;;;;4955090;28;20421;-88
2021/05/21 04:05:50;;;;;;;6.67;4.67;;;11.50;97.30;;;;;;4955371;28;20549;-90
2021/05/21 04:08:16;;;;;;;6.53;4.43;;;11.50;97.30;;;;;;4955439;28;20195;-90
2021/05/21 04:10:41;;;;;;;6.90;4.83;;;11.60;97.30;;;;;;4956339;28;20178;-91
2021/05/21 04:13:09;;;;;;;5.40;4.30;;;11.60;97.30;;;;;;4955872;28;20581;-91
2021/05/21 04:15:35;;;;;;;5.93;3.90;;;11.70;97.30;;;;;;4956274;28;20182;-90
2021/05/21 04:18:01;;;;;;;6.00;3.40;;;11.80;97.30;;;;;;4955525;28;20433;-91
2021/05/21 04:20:27;;;;;;;6.27;3.67;;;11.80;97.30;;;;;;4974305;28;20175;-91
2021/05/21 04:22:52;;;;;;;4.93;3.50;;;11.90;97.30;;;;;;4956573;28;20986;-91
2021/05/21 04:25:18;;;;;;;5.43;3.60;;;11.90;97.30;;;;;;4957237;28;20980;-91
2021/05/21 04:27:43;;;;;;;4.47;3.80;;;12.00;97.30;;;;;;4956612;28;20226;-90
2021/05/21 04:30:09;;;;;;;5.10;3.80;;;12.00;97.30;;;;;;4960340;28;20186;-92
2021/05/21 04:32:35;;;;;;;5.13;3.77;;;12.00;97.30;;;;;;4959294;28;20274;-92
2021/05/21 04:35:01;;;;;;;9.23;3.73;;;12.10;97.30;;;;;;4958691;28;20460;-90
2021/05/21 04:37:26;;;;;;;5.20;3.70;;;12.10;97.30;;;;;;4958593;28;20190;-91
2021/05/21 04:39:52;;;;;;;6.47;4.07;;;12.10;97.30;;;;;;4958328;28;20237;-91
2021/05/21 04:42:17;;;;;;;6.70;4.00;;;12.10;97.30;;;;;;4958570;28;20179;-91
2021/05/21 04:44:43;;;;;;;3.73;3.57;;;12.10;97.30;;;;;;4958004;28;20530;-90
2021/05/21 04:47:08;;;;;;;5.77;3.80;;;12.10;97.30;;;;;;4957789;28;20261;-89
2021/05/21 04:49:35;;;;;;;6.50;4.30;;;12.20;97.30;;;;;;4976655;28;20206;-90
2021/05/21 04:52:07;;;;;;;8.40;3.80;;;12.20;97.30;;;;;;4976744;28;20265;-90
2021/05/21 04:54:34;;;;;;;5.20;3.70;;;12.20;97.30;;;;;;4960226;28;20658;-90
2021/05/21 04:57:00;;;;;;;4.93;3.57;;;12.30;97.30;;;;;;4959218;28;20426;-91
2021/05/21 04:59:26;;;;;;;5.30;3.73;;;12.30;97.30;;;;;;4958741;28;20418;-91
2021/05/21 05:01:52;;;;;;;12.77;4.20;;;12.30;97.30;;;;;;4958358;28;20229;-91
2021/05/21 05:04:17;;;;;;;5.83;4.03;;;12.30;97.30;;;;;;4976289;28;20183;-91
2021/05/21 05:06:43;;;;;;;5.50;4.37;;;12.30;97.30;;;;;;4960243;28;20222;-90
2021/05/21 05:09:10;;;;;;;4.73;4.10;;;12.30;97.30;;;;;;4959715;28;20198;-90
2021/05/21 05:11:39;;;;;;;5.63;3.80;;;12.40;97.30;;;;;;4959355;28;20174;-90
2021/05/21 05:14:14;;;;;;;5.33;3.90;;;12.40;97.30;;;;;;4961741;28;20421;-88
2021/05/21 05:19:23;;;;;;;4.40;3.37;;;12.50;97.30;;;;;;4979194;23;20536;-76
2021/05/21 05:21:53;;;;;;;6.10;3.50;;;12.60;97.30;;;;;;4956540;28;20458;-76
2021/05/21 05:24:22;;;;;;;6.10;3.40;;;12.60;97.30;;;;;;4956555;28;20422;-76
2021/05/21 05:26:48;;;;;;;8.43;3.87;;;12.60;97.30;;;;;;4956318;28;20462;-75
2021/05/21 05:29:14;;;;;;;5.03;3.70;;;12.60;97.30;;;;;;4974169;28;20774;-76
2021/05/21 05:31:45;;;;;;;9.17;3.80;;;12.60;97.30;;;;;;4956879;28;20245;-75
2021/05/21 05:34:11;;;;;;;4.87;3.50;;;12.60;97.30;;;;;;4973393;28;20417;-76
2021/05/21 05:36:36;;;;;;;3.87;3.20;;;12.70;97.30;;;;;;4973782;28;20414;-74
2021/05/21 05:39:02;;;;;;;6.53;3.23;;;12.70;97.30;;;;;;4973636;28;20174;-76
2021/05/21 05:41:28;;;;;;;6.40;2.97;;;12.80;97.30;;;;;;4956329;28;20205;-75
2021/05/21 05:43:53;;;;;;;4.53;3.23;;;12.90;97.30;;;;;;4973215;28;20189;-75
2021/05/21 05:46:19;;;;;;;3.90;3.00;;;12.90;97.30;;;;;;4973525;28;20199;-75
2021/05/21 05:48:46;;;;;;;4.00;3.30;;;12.90;97.30;;;;;;4956054;28;20668;-76
2021/05/21 05:51:12;;;;;;;6.40;3.43;;;13.00;97.30;;;;;;4956147;28;20209;-74
2021/05/21 05:53:39;;;;;;;4.70;2.90;;;13.10;97.30;;;;;;4973413;28;20410;-76
2021/05/21 05:56:05;;;;;;;3.20;2.87;;;13.10;97.30;;;;;;4955850;28;20179;-76
2021/05/21 05:58:31;;;;;;;2.90;2.50;;;13.20;97.30;;;;;;4955692;28;20840;-76
2021/05/21 06:00:58;;;;;;;3.03;2.60;;;13.40;97.30;;;;;;4955667;28;20536;-76
2021/05/21 06:03:23;;;;;;;6.70;2.60;;;13.50;97.20;;;;;;4955697;28;20264;-77
2021/05/21 06:05:49;;;;;;;4.00;2.77;;;13.70;96.70;;;;;;4955569;28;20539;-79
2021/05/21 06:08:14;;;;;;;2.80;2.67;;;13.90;96.60;;;;;;4955487;28;20188;-74
2021/05/21 06:10:40;;;;;;;4.03;2.63;;;14.10;96.10;;;;;;4955591;28;20205;-75
2021/05/21 06:13:09;;;;;;;3.87;2.30;;;14.20;94.60;;;;;;4955922;28;20725;-74
2021/05/21 06:15:35;;;;;;;7.13;2.37;;;14.40;94.60;;;;;;4955704;28;20183;-77
2021/05/21 06:18:01;;;;;;;3.87;2.10;;;14.50;94.10;;;;;;4955135;28;20509;-73
2021/05/21 06:20:28;;;;;;;7.13;2.70;;;14.60;93.70;;;;;;4972926;28;20453;-76
2021/05/21 06:22:54;;;;;;;4.93;2.10;;;14.70;93.30;;;;;;4955362;28;20192;-73
2021/05/21 06:25:39;;;;;;;4.47;2.13;;;14.70;92.80;;;;;;4972886;28;20418;-75
2021/05/21 06:28:04;;;;;;;3.00;2.40;;;14.60;93.00;;;;;;4955658;28;20772;-75
2021/05/21 06:30:30;;;;;;;2.97;2.20;;;14.50;92.20;;;;;;4955527;28;20439;-75
2021/05/21 06:32:56;;;;;;;5.30;2.53;;;14.60;93.00;;;;;;4955626;28;20541;-77
2021/05/21 06:35:22;;;;;;;2.50;2.07;;;14.60;92.80;;;;;;4955386;28;20179;-75
2021/05/21 06:37:48;;;;;;;3.37;2.33;;;14.60;92.40;;;;;;4955115;28;20258;-73
2021/05/21 06:40:14;;;;;;;3.83;2.30;;;14.80;92.60;;;;;;4955409;28;20581;-75
2021/05/21 06:42:40;;;;;;;5.97;2.87;;;14.90;91.90;;;;;;4955316;28;20175;-72
2021/05/21 06:45:07;;;;;;;3.30;2.10;;;15.10;92.40;;;;;;4955015;28;20952;-74
2021/05/21 06:47:32;;;;;;;2.57;1.83;;;15.20;91.30;;;;;;4955463;28;20969;-73
2021/05/21 06:49:58;;;;;;;2.70;2.23;;;15.20;90.20;;;;;;4954972;28;20933;-75
2021/05/21 06:52:24;;;;;;;7.73;2.20;;;15.40;91.10;;;;;;4954383;28;20704;-73
2021/05/21 06:54:49;;;;;;;2.83;1.83;;;15.50;90.20;;;;;;4954903;28;20321;-74
2021/05/21 06:57:15;;;;;;;6.40;2.20;;;15.50;89.50;;;;;;4972625;28;20170;-72
2021/05/21 06:59:41;;;;;;;6.43;2.40;;;15.50;89.40;;;;;;4955081;28;20191;-72
2021/05/21 07:02:08;;;;;;;3.57;2.10;;;15.60;89.60;;;;;;4954358;28;20639;-73
2021/05/21 07:04:33;;;;;;;4.40;1.80;;;15.80;89.60;;;;;;4971917;28;20238;-71
2021/05/21 07:06:59;;;;;;;2.17;1.80;;;15.80;88.70;;;;;;4954716;28;20493;-72
2021/05/21 07:09:24;;;;;;;2.47;1.90;;;15.80;88.90;;;;;;4954799;28;20261;-71
2021/05/21 07:11:50;;;;;;;2.53;1.90;;;15.80;88.40;;;;;;4954853;28;20200;-73
2021/05/21 07:14:16;;;;;;;2.37;1.87;;;15.80;89.00;;;;;;4972011;28;20206;-71
2021/05/21 07:16:41;;;;;;;3.57;2.17;;;15.80;88.80;;;;;;4954685;28;20268;-74
2021/05/21 07:19:09;;;;;;;3.43;2.10;;;15.90;88.40;;;;;;4954333;28;20237;-74
2021/05/21 07:21:35;;;;;;;1.97;1.90;;;15.90;87.50;;;;;;4954946;28;20577;-73
2021/05/21 07:24:02;;;;;;;2.90;2.10;;;15.90;88.40;;;;;;4954535;28;20469;-77
2021/05/21 07:26:30;;;;;;;2.17;1.80;;;15.90;88.10;;;;;;4972104;28;20461;-75
2021/05/21 07:28:56;;;;;;;3.50;1.83;;;15.90;88.40;;;;;;4971969;28;20420;-75
2021/05/21 07:31:26;;;;;;;2.30;2.10;;;16.00;89.20;;;;;;4954479;28;20441;-73
2021/05/21 07:33:51;;;;;;;2.90;2.27;;;16.20;88.90;;;;;;4954125;28;20182;-73
2021/05/21 07:36:17;;;;;;;2.43;1.93;;;16.30;89.00;;;;;;4954519;28;20484;-74
2021/05/21 07:38:43;;;;;;;3.70;2.40;;;16.50;88.00;;;;;;4971859;28;20229;-74
2021/05/21 07:41:08;;;;;;;5.50;2.60;;;16.50;87.90;;;;;;4971807;28;20285;-77
2021/05/21 07:43:34;;;;;;;4.53;2.10;;;16.60;87.20;;;;;;4954497;28;20182;-74
2021/05/21 07:45:59;;;;;;;7.40;2.00;;;16.60;87.10;;;;;;4954382;28;20202;-78
2021/05/21 07:48:26;;;;;;;2.37;2.00;;;16.60;86.70;;;;;;4954654;28;20178;-76
2021/05/21 07:50:52;;;;;;;5.73;2.20;;;16.60;87.20;;;;;;4954486;28;20643;-74
2021/05/21 07:53:18;;;;;;;3.33;2.30;;;16.60;87.30;;;;;;4954521;28;20453;-74
2021/05/21 07:55:44;;;;;;;5.10;1.90;;;16.60;87.60;;;;;;4971411;28;20512;-73
2021/05/21 07:58:12;;;;;;;6.50;2.30;;;16.70;86.90;;;;;;4971528;28;20186;-73
2021/05/21 08:00:38;;;;;;;5.60;2.30;;;16.80;87.40;;;;;;4972179;28;20484;-74
2021/05/21 08:03:04;;;;;;;3.20;2.00;;;16.80;86.80;;;;;;4973991;28;20421;-73
2021/05/21 08:05:29;;;;;;;3.30;1.90;;;16.90;86.60;;;;;;4958416;28;20217;-74
2021/05/21 08:07:55;;;;;;;2.63;1.97;;;16.90;86.10;;;;;;4958154;28;20181;-73
2021/05/21 08:10:21;;;;;;;5.13;1.70;;;17.00;86.90;;;;;;4957787;28;20600;-72
2021/05/21 08:12:46;;;;;;;2.90;2.10;;;17.20;86.70;;;;;;4975281;28;20178;-74
2021/05/21 08:15:13;;;;;;;3.90;2.00;;;17.20;85.60;;;;;;4957606;28;20466;-73
2021/05/21 08:17:38;;;;;;;2.93;1.93;;;17.20;85.90;;;;;;4975005;28;20690;-73
2021/05/21 08:20:05;;;;;;;3.07;1.93;;;17.30;86.90;;;;;;4957495;28;20524;-73
2021/05/21 08:22:30;;;;;;;3.17;1.67;;;17.40;86.70;;;;;;4957604;28;20293;-73
2021/05/21 08:24:56;;;;;;;5.13;1.90;;;17.40;85.50;;;;;;4957351;28;20429;-72
2021/05/21 08:27:22;;;;;;;2.20;2.00;;;17.40;85.00;;;;;;4975207;28;20268;-72
2021/05/21 08:29:47;;;;;;;4.63;2.00;;;17.50;85.90;;;;;;4975219;28;20171;-73
2021/05/21 08:32:13;;;;;;;2.57;1.60;;;17.70;86.00;;;;;;4957196;28;20207;-77
2021/05/21 08:34:39;;;;;;;4.03;2.00;;;17.80;83.20;;;;;;4957408;28;20215;-74
2021/05/21 08:37:04;;;;;;;5.27;1.80;;;18.00;82.60;;;;;;4957419;28;20418;-73
2021/05/21 08:39:30;;;;;;;7.17;1.60;;;18.10;81.80;;;;;;4957774;28;20180;-75
2021/05/21 08:41:58;;;;;;;3.00;1.43;;;18.10;80.70;;;;;;4957000;28;20203;-74
2021/05/21 08:44:26;;;;;;;3.83;1.70;;;18.20;81.40;;;;;;4957552;28;20232;-75
2021/05/21 08:46:52;;;;;;;3.50;2.10;;;18.20;80.00;;;;;;4956798;28;20547;-76
2021/05/21 08:49:19;;;;;;;1.97;1.83;;;18.20;80.70;;;;;;4957244;28;20793;-72
2021/05/21 08:51:45;;;;;;;3.80;1.90;;;18.20;80.90;;;;;;4958147;28;21007;-75
2021/05/21 08:54:11;;;;;;;5.60;1.73;;;18.30;79.90;;;;;;4974716;28;20421;-72
2021/05/21 08:56:37;;;;;;;5.03;1.80;;;18.40;80.50;;;;;;4957087;28;20426;-73
2021/05/21 08:59:03;;;;;;;5.43;1.87;;;18.40;79.40;;;;;;4957209;28;20422;-74
2021/05/21 09:01:28;;;;;;;5.00;1.80;;;18.40;79.00;;;;;;4957375;28;20948;-74
2021/05/21 09:04:00;;;;;;;4.67;2.30;;;18.50;79.00;;;;;;4957395;28;20189;-75
2021/05/21 09:06:26;;;;;;;3.73;1.80;;;18.50;78.20;;;;;;4956791;28;20199;-75
2021/05/21 09:08:54;;;;;;;2.43;1.67;;;18.50;79.20;;;;;;4957138;28;20468;-74
2021/05/21 09:11:36;;;;;;;2.10;1.60;;;18.60;79.70;;;;;;4956730;28;20442;-73
2021/05/21 09:14:02;;;;;;;1.67;1.50;;;18.70;79.60;;;;;;4956279;28;20968;-75
2021/05/21 09:16:29;;;;;;;6.43;1.97;;;18.60;78.90;;;;;;4957027;28;20410;-77
2021/05/21 09:19:14;;;;;;;5.70;1.83;;;18.50;78.80;;;;;;4956808;28;20233;-73
2021/05/21 09:21:48;;;;;;;4.97;1.90;;;18.60;79.50;;;;;;4973649;28;20488;-74
2021/05/21 09:24:14;;;;;;;1.90;1.70;;;18.70;79.40;;;;;;4956528;28;20480;-74
2021/05/21 09:26:41;;;;;;;3.97;1.97;;;18.80;80.40;;;;;;4956555;28;20454;-73
2021/05/21 09:29:09;;;;;;;2.90;1.60;;;19.00;80.00;;;;;;4966184;23;20565;-75
2021/05/21 09:31:45;;;;;;;4.00;1.73;;;19.10;78.80;;;;;;4953087;29;20482;-77
2021/05/21 09:34:12;;;;;;;2.97;1.87;;;19.00;78.60;;;;;;4953032;29;20402;-77
2021/05/21 09:36:39;;;;;;;5.33;1.90;;;19.00;79.20;;;;;;4952977;29;20410;-75
2021/05/21 09:39:08;;;;;;;4.60;1.93;;;19.00;78.40;;;;;;4953098;29;20423;-74
2021/05/21 09:41:49;;;;;;;6.23;2.03;;;18.90;78.70;;;;;;4952848;29;20442;-75
2021/05/21 09:44:16;;;;;;;5.73;1.70;;;18.90;79.00;;;;;;4952788;29;20422;-76
2021/05/21 09:46:50;;;;;;;4.90;1.53;;;18.90;78.70;;;;;;4952972;29;20541;-77
2021/05/21 09:49:34;;;;;;;3.53;1.90;;;18.80;79.50;;;;;;4952867;29;20425;-76
2021/05/21 09:52:05;;;;;;;10.03;2.60;;;19.00;79.70;;;;;;4953683;28;20719;-76
2021/05/21 09:54:56;;;;;;;2.67;1.90;;;19.00;79.50;;;;;;4954195;28;20497;-75
2021/05/21 09:57:36;;;;;;;4.70;1.77;;;19.00;80.20;;;;;;4952738;29;20513;-74
2021/05/21 10:00:06;;;;;;;4.17;1.47;;;18.90;79.50;;;;;;4952682;29;20787;-74
2021/05/21 10:02:32;;;;;;;2.23;2.00;;;18.80;79.00;;;;;;4953811;28;20446;-74
2021/05/21 10:05:00;;;;;;;3.33;1.87;;;18.90;79.90;;;;;;4969028;28;20505;-76
2021/05/21 10:07:25;;;;;;;4.50;1.93;;;18.70;79.20;;;;;;4971620;28;20457;-75
2021/05/21 10:09:51;;;;;;;1.83;1.70;;;18.70;80.30;;;;;;4972681;28;20429;-77
2021/05/21 10:12:17;;;;;;;3.27;1.70;;;18.70;80.20;;;;;;4971758;28;20194;-77
2021/05/21 10:14:52;;;;;;;2.80;1.70;;;18.80;81.30;;;;;;4971763;28;20477;-78
2021/05/21 10:17:21;;;;;;;4.37;2.10;;;18.80;81.70;;;;;;4971608;28;20448;-77
2021/05/21 10:19:48;;;;;;;2.83;2.00;;;18.90;80.70;;;;;;4971835;28;20568;-76
2021/05/21 10:22:21;;;;;;;2.63;1.80;;;18.90;80.00;;;;;;4971172;28;20517;-74
2021/05/21 10:24:47;;;;;;;2.23;1.87;;;19.00;81.20;;;;;;4972837;28;20409;-77
2021/05/21 10:27:19;;;;;;;2.40;1.83;;;18.90;80.30;;;;;;4956197;28;20465;-77
2021/05/21 10:29:53;;;;;;;5.30;1.70;;;18.90;80.00;;;;;;4951217;29;20314;-74
2021/05/21 10:32:30;;;;;;;3.43;1.53;;;18.90;79.40;;;;;;4952059;29;20549;-75
2021/05/21 10:35:12;;;;;;;1.80;1.60;;;19.00;80.40;;;;;;4953320;28;20411;-74
2021/05/21 10:37:39;;;;;;;1.90;1.57;;;19.20;79.60;;;;;;4952044;29;20430;-73
2021/05/21 10:40:10;;;;;;;5.80;1.73;;;19.30;80.40;;;;;;4949280;28;20966;-75
2021/05/21 10:42:46;;;;;;;9.63;1.77;;;19.30;78.00;;;;;;4948413;29;20457;-75
2021/05/21 10:45:20;;;;;;;3.23;1.43;;;19.40;78.30;;;;;;4939799;29;20518;-72
2021/05/21 10:47:55;;;;;;;2.17;1.50;;;19.50;78.80;;;;;;4952589;29;20454;-76
2021/05/21 10:50:21;;;;;;;4.00;1.60;;;19.50;77.70;;;;;;4951907;29;20421;-75
2021/05/21 10:52:52;;;;;;;3.43;1.50;;;19.70;77.20;;;;;;4952033;29;20411;-75
2021/05/21 10:55:39;;;;;;;2.70;1.77;;;19.60;76.90;;;;;;4953393;28;20541;-78
2021/05/21 10:58:04;;;;;;;4.90;1.80;;;19.70;76.70;;;;;;4952800;29;20499;-75
2021/05/21 11:00:31;;;;;;;8.40;1.47;;;19.90;76.20;;;;;;4952288;29;20407;-76
2021/05/21 11:02:56;;;;;;;9.40;1.40;;;20.10;76.70;;;;;;4951578;29;20270;-73
2021/05/21 11:05:36;;;;;;;3.63;1.63;;;20.10;75.20;;;;;;4952650;28;20506;-75
2021/05/21 11:08:20;;;;;;;5.23;1.87;;;20.30;74.80;;;;;;4952621;28;20430;-76
2021/05/21 11:10:50;;;;;;;2.70;1.70;;;20.50;75.70;;;;;;4934786;29;20979;-77
2021/05/21 11:13:17;;;;;;;2.27;1.80;;;20.40;73.70;;;;;;4934819;29;20951;-76
2021/05/21 11:15:50;;;;;;;4.13;1.60;;;20.20;74.20;;;;;;4932655;29;20428;-77
2021/05/21 11:18:16;;;;;;;2.17;1.60;;;20.30;74.00;;;;;;4933411;29;20933;-75
2021/05/21 11:21:04;;;;;;;5.13;1.80;;;20.20;74.50;;;;;;4931882;29;20440;-75
2021/05/21 11:23:34;;;;;;;3.33;1.60;;;20.20;74.80;;;;;;4932097;29;20187;-74
2021/05/21 11:26:06;;;;;;;3.10;1.50;;;20.30;75.70;;;;;;4933235;29;20542;-77
2021/05/21 11:28:38;;;;;;;5.13;1.57;;;20.20;74.20;;;;;;4931924;29;20471;-76
2021/05/21 11:31:19;;;;;;;5.60;1.60;;;20.10;75.70;;;;;;4931726;29;20503;-76
2021/05/21 11:33:47;;;;;;;3.47;1.30;;;20.20;75.10;;;;;;4932187;29;20425;-77
2021/05/21 11:36:14;;;;;;;4.40;1.50;;;20.00;74.20;;;;;;4932265;29;20419;-76
2021/05/21 11:38:40;;;;;;;1.97;1.53;;;20.00;74.30;;;;;;4931923;29;20420;-79
2021/05/21 11:41:07;;;;;;;6.00;1.93;;;20.10;75.20;;;;;;4932097;29;20523;-76
2021/05/21 11:43:37;;;;;;;4.60;1.33;;;20.20;74.00;;;;;;4931993;29;20432;-77
2021/05/21 11:46:03;;;;;;;3.00;1.37;;;20.10;74.10;;;;;;4933564;29;20455;-76
2021/05/21 11:48:37;;;;;;;3.80;1.63;;;20.10;74.40;;;;;;4933331;29;20422;-75
2021/05/21 11:51:08;;;;;;;5.80;1.43;;;20.20;74.80;;;;;;4932063;29;20759;-76
2021/05/21 11:53:55;;;;;;;4.70;1.70;;;20.30;73.30;;;;;;4933394;29;20835;-76
2021/05/21 11:56:39;;;;;;;3.83;1.60;;;20.40;73.20;;;;;;4933081;29;20915;-75
2021/05/21 11:59:10;;;;;;;4.00;1.70;;;20.60;73.50;;;;;;4931994;29;20511;-76
2021/05/21 12:01:42;;;;;;;6.60;1.50;;;20.70;74.10;;;;;;4933421;29;20436;-77
2021/05/21 12:04:08;;;;;;;1.87;1.57;;;20.40;73.30;;;;;;4951651;28;20430;-80
2021/05/21 12:06:39;;;;;;;4.57;1.60;;;20.00;74.10;;;;;;4971018;28;20987;-76
2021/05/21 12:09:06;;;;;;;3.40;1.70;;;19.80;74.80;;;;;;4970367;28;20666;-76
2021/05/21 12:11:32;;;;;;;5.20;1.47;;;19.60;74.70;;;;;;4971857;28;20558;-76
2021/05/21 12:14:06;;;;;;;3.73;1.50;;;19.60;75.00;;;;;;4970158;28;20504;-77
2021/05/21 12:16:33;;;;;;;2.33;1.47;;;19.50;75.10;;;;;;4970326;28;20959;-76
2021/05/21 12:18:59;;;;;;;2.87;1.30;;;19.50;74.50;;;;;;4970077;28;20429;-75
2021/05/21 12:21:31;;;;;;;3.30;1.70;;;19.50;73.50;;;;;;4971418;28;20430;-76
2021/05/21 12:23:58;;;;;;;2.20;1.50;;;19.70;74.10;;;;;;4971332;28;20418;-76
2021/05/21 12:26:26;;;;;;;2.80;1.50;;;20.10;74.00;;;;;;4969853;28;20482;-77
2021/05/21 12:28:54;;;;;;;4.70;1.60;;;20.50;74.40;;;;;;4971179;28;20457;-77
2021/05/21 12:31:25;;;;;;;7.57;1.97;;;20.70;73.00;;;;;;4970279;28;20476;-77
2021/05/21 12:33:51;;;;;;;1.40;1.30;;;20.70;71.00;;;;;;4970042;28;20418;-78
2021/05/21 12:36:17;;;;;;;3.07;1.90;;;20.60;70.60;;;;;;4970291;28;20440;-77
2021/05/21 12:38:55;;;;;;;2.27;1.37;;;20.60;70.60;;;;;;4970381;28;20510;-76
2021/05/21 12:41:29;;;;;;;3.60;1.73;;;20.60;70.70;;;;;;4969874;28;20442;-75
2021/05/21 12:44:15;;;;;;;7.00;2.23;;;20.70;70.80;;;;;;4969617;28;20520;-75
2021/05/21 12:46:52;;;;;;;2.70;1.40;;;20.70;71.40;;;;;;4970193;28;20504;-76
2021/05/21 12:49:34;;;;;;;4.40;1.63;;;20.40;71.20;;;;;;4970813;28;20410;-77
2021/05/21 12:52:02;;;;;;;3.63;1.60;;;20.40;71.80;;;;;;4966822;28;20468;-77
2021/05/21 12:54:31;;;;;;;1.73;1.40;;;20.50;71.30;;;;;;4950447;29;20474;-77
2021/05/21 12:57:02;;;;;;;2.67;1.70;;;20.40;72.10;;;;;;4950337;29;20954;-82
2021/05/21 12:59:41;;;;;;;2.27;1.60;;;20.10;71.20;;;;;;4955043;29;20438;-79
2021/05/21 13:02:15;;;;;;;2.27;1.60;;;20.00;71.90;;;;;;4953762;29;20456;-77
2021/05/21 13:05:18;;;;;;;2.50;1.60;;;20.50;72.40;;;;;;4965819;28;20476;-76
2021/05/21 13:07:58;;;;;;;3.63;1.63;;;20.90;71.40;;;;;;4895456;29;20823;-77
2021/05/21 13:10:25;;;;;;;9.43;1.83;;;20.90;72.00;;;;;;4937928;28;20437;-79
2021/05/21 13:12:53;;;;;;;2.87;1.70;;;20.60;71.20;;;;;;4953962;29;20680;-77
2021/05/21 13:15:23;;;;;;;2.63;1.70;;;20.80;70.90;;;;;;4953775;29;20438;-78